createdAt,value
2022-09-06T00:01:17.335Z,91.50
2022-09-06T00:09:22.749Z,91.30
2022-09-06T00:17:32.097Z,91.20
2022-09-06T00:25:38.050Z,91.00
2022-09-06T00:33:46.968Z,90.90
2022-09-06T00:41:52.399Z,91.00
2022-09-06T00:50:02.486Z,91.00
2022-09-06T00:58:07.883Z,91.00
2022-09-06T01:06:26.552Z,91.30
2022-09-06T01:14:47.502Z,91.40
2022-09-06T01:23:23.478Z,91.30
2022-09-06T01:31:36.529Z,91.40
2022-09-06T01:39:43.633Z,91.60
2022-09-06T01:48:00.110Z,91.70
2022-09-06T01:56:13.879Z,91.60
2022-09-06T02:04:27.999Z,91.60
2022-09-06T02:12:35.725Z,91.70
2022-09-06T02:20:48.385Z,92.00
2022-09-06T02:28:53.799Z,92.20
2022-09-06T02:37:02.985Z,92.20
2022-09-06T02:45:09.291Z,92.10
2022-09-06T02:53:18.783Z,92.10
2022-09-06T03:01:24.287Z,92.00
2022-09-06T03:09:32.371Z,92.10
2022-09-06T03:17:37.737Z,92.30
2022-09-06T03:25:45.854Z,92.50
2022-09-06T03:33:51.238Z,92.50
2022-09-06T03:41:59.253Z,92.40
2022-09-06T03:50:04.687Z,92.20
2022-09-06T03:58:12.731Z,92.00
2022-09-06T04:06:18.153Z,92.10
2022-09-06T04:14:26.096Z,92.20
2022-09-06T04:22:31.601Z,91.90
2022-09-06T04:30:39.639Z,91.80
2022-09-06T04:38:46.511Z,91.50
2022-09-06T04:47:09.334Z,91.50
2022-09-06T04:55:15.044Z,91.60
2022-09-06T05:03:23.315Z,91.20
2022-09-06T05:11:28.757Z,91.00
2022-09-06T05:19:36.812Z,90.80
2022-09-06T05:27:42.274Z,90.60
2022-09-06T05:35:50.373Z,90.10
2022-09-06T05:43:55.828Z,90.50
2022-09-06T05:52:03.846Z,90.20
2022-09-06T06:00:12.206Z,90.50
2022-09-06T06:08:20.327Z,90.70
2022-09-06T06:16:26.525Z,90.40
2022-09-06T06:24:34.635Z,88.20
2022-09-06T06:32:40.484Z,87.60
2022-09-06T06:40:54.155Z,86.00
2022-09-06T06:49:03.921Z,85.50
2022-09-06T06:57:12.823Z,84.50
2022-09-06T07:13:46.771Z,83.50
2022-09-06T07:21:52.191Z,81.60
2022-09-06T07:30:00.182Z,81.10
2022-09-06T07:38:05.654Z,79.70
2022-09-06T07:46:15.895Z,78.70
2022-09-06T07:54:36.637Z,80.10
2022-09-06T08:02:44.709Z,79.10
2022-09-06T08:10:53.546Z,77.40
2022-09-06T08:19:03.313Z,78.20
2022-09-06T08:27:09.582Z,78.00
2022-09-06T08:35:17.710Z,77.00
2022-09-06T08:43:24.817Z,76.50
2022-09-06T08:52:11.804Z,76.00
2022-09-06T09:00:23.270Z,73.10
2022-09-06T09:08:32.342Z,74.60
2022-09-06T09:16:43.366Z,72.70
2022-09-06T09:24:51.926Z,70.10
2022-09-06T09:32:59.932Z,68.80
2022-09-06T09:41:08.607Z,69.20
2022-09-06T09:49:30.218Z,68.00
2022-09-06T09:57:47.554Z,65.90
2022-09-06T10:06:03.321Z,66.10
2022-09-06T10:14:18.765Z,61.60
2022-09-06T10:22:31.150Z,58.70
2022-09-06T10:30:43.262Z,56.80
2022-09-06T10:39:00.366Z,53.30
2022-09-06T10:47:14.546Z,45.10
2022-09-06T10:55:23.080Z,44.20
2022-09-06T11:12:09.085Z,43.20
2022-09-06T11:20:22.059Z,36.80
2022-09-06T11:28:38.022Z,35.90
2022-09-06T11:36:49.752Z,32.00
2022-09-06T11:45:21.653Z,31.80
2022-09-06T11:53:29.497Z,32.20
2022-09-06T12:01:42.929Z,28.20
2022-09-06T12:09:48.500Z,27.70
2022-09-06T12:17:56.851Z,26.30
2022-09-06T12:26:02.471Z,26.80
2022-09-06T12:34:16.958Z,26.70
2022-09-06T12:42:23.194Z,26.70
2022-09-06T12:50:31.773Z,27.70
2022-09-06T12:58:38.943Z,31.80
2022-09-06T13:06:48.862Z,37.20
2022-09-06T13:14:56.395Z,41.30
2022-09-06T13:23:13.191Z,45.30
2022-09-06T13:31:26.334Z,48.60
2022-09-06T13:39:39.731Z,50.20
2022-09-06T13:47:45.050Z,50.50
2022-09-06T13:55:53.009Z,50.40
2022-09-06T14:03:58.786Z,49.90
2022-09-06T14:12:07.369Z,50.00
2022-09-06T14:20:15.738Z,53.10
2022-09-06T14:28:23.890Z,55.50
2022-09-06T14:36:31.688Z,56.90
2022-09-06T14:44:39.775Z,57.50
2022-09-06T14:52:45.380Z,59.80
2022-09-06T15:00:53.526Z,59.40
2022-09-06T15:08:59.699Z,58.70
2022-09-06T15:17:09.109Z,59.10
2022-09-06T15:25:14.606Z,60.10
2022-09-06T15:33:22.745Z,61.20
2022-09-06T15:41:29.616Z,61.40
2022-09-06T15:49:37.929Z,61.80
2022-09-06T15:57:43.422Z,63.30
2022-09-06T16:14:18.544Z,63.90
2022-09-06T16:22:26.711Z,64.20
2022-09-06T16:30:32.258Z,64.30
2022-09-06T16:38:41.621Z,64.70
2022-09-06T16:46:48.024Z,65.00
2022-09-06T16:54:56.106Z,65.80
2022-09-06T17:03:01.779Z,65.80
2022-09-06T17:11:12.122Z,65.80
2022-09-06T17:19:17.872Z,66.90
2022-09-06T17:27:26.044Z,70.30
2022-09-06T17:35:31.568Z,71.40
2022-09-06T17:43:41.671Z,72.70
2022-09-06T17:51:49.445Z,73.50
2022-09-06T17:59:57.518Z,74.10
2022-09-06T18:08:03.002Z,74.40
2022-09-06T18:16:11.182Z,74.60
2022-09-06T18:24:16.880Z,75.10
2022-09-06T18:32:25.017Z,75.30
2022-09-06T18:40:31.053Z,75.90
2022-09-06T18:48:40.358Z,76.40
2022-09-06T18:56:47.239Z,77.20
2022-09-06T19:04:56.175Z,77.00
2022-09-06T19:13:01.686Z,76.90
2022-09-06T19:21:11.303Z,77.20
2022-09-06T19:29:18.754Z,79.10
2022-09-06T19:37:26.915Z,79.30
2022-09-06T19:45:32.511Z,79.60
2022-09-06T19:53:42.090Z,80.20
2022-09-06T20:01:49.679Z,80.70
2022-09-06T20:09:57.827Z,82.10
2022-09-06T20:18:03.282Z,81.60
2022-09-06T20:26:13.608Z,82.00
2022-09-06T20:34:21.475Z,82.40
2022-09-06T20:42:29.563Z,83.50
2022-09-06T20:50:35.002Z,84.40
2022-09-06T20:58:43.755Z,84.80
2022-09-06T21:06:51.104Z,84.10
2022-09-06T21:14:59.170Z,84.00
2022-09-06T21:23:04.660Z,84.20
2022-09-06T21:31:14.961Z,85.60
2022-09-06T21:39:20.524Z,84.70
2022-09-06T21:47:28.616Z,85.20
2022-09-06T21:55:35.620Z,85.60
2022-09-06T22:03:43.801Z,85.80
2022-09-06T22:11:49.323Z,85.10
2022-09-06T22:19:57.345Z,84.70
2022-09-06T22:28:03.483Z,83.80
2022-09-06T22:36:11.952Z,84.00
2022-09-06T22:44:18.696Z,84.20
2022-09-06T22:52:26.828Z,83.60
2022-09-06T23:00:32.301Z,84.00
2022-09-06T23:08:41.994Z,85.00
2022-09-06T23:16:47.459Z,86.00
2022-09-06T23:24:55.823Z,85.70
2022-09-06T23:33:01.683Z,86.20
2022-09-06T23:41:10.623Z,85.80
2022-09-06T23:49:16.144Z,86.10
2022-09-06T23:57:24.183Z,85.60
